createdAt,value
2022-12-29T00:01:09.230Z,0.97
2022-12-29T00:03:54.588Z,1.10
2022-12-29T00:06:39.907Z,1.43
2022-12-29T00:09:26.819Z,1.17
2022-12-29T00:12:12.257Z,2.03
2022-12-29T00:15:16.259Z,1.13
2022-12-29T00:18:03.234Z,1.13
2022-12-29T00:21:06.884Z,1.10
2022-12-29T00:24:11.165Z,1.23
2022-12-29T00:27:30.040Z,1.47
2022-12-29T00:30:36.908Z,1.00
2022-12-29T00:33:44.910Z,1.33
2022-12-29T00:36:40.415Z,1.73
2022-12-29T00:39:44.780Z,1.20
2022-12-29T00:42:48.683Z,1.60
2022-12-29T00:45:33.800Z,2.57
2022-12-29T00:48:38.999Z,1.27
2022-12-29T00:51:24.948Z,0.80
2022-12-29T00:54:10.781Z,1.30
2022-12-29T00:56:56.376Z,1.10
2022-12-29T00:59:43.176Z,1.03
2022-12-29T01:02:29.444Z,1.30
2022-12-29T01:05:15.236Z,1.17
2022-12-29T01:08:00.460Z,1.10
2022-12-29T01:10:45.635Z,1.10
2022-12-29T01:13:31.407Z,0.80
2022-12-29T01:16:16.800Z,1.17
2022-12-29T01:19:04.546Z,1.23
2022-12-29T01:21:50.128Z,1.60
2022-12-29T01:24:35.597Z,0.87
2022-12-29T01:27:21.027Z,1.10
2022-12-29T01:30:06.871Z,1.63
2022-12-29T01:32:52.831Z,1.57
2022-12-29T01:35:38.125Z,1.30
2022-12-29T01:38:23.347Z,1.03
2022-12-29T01:41:10.672Z,1.20
2022-12-29T01:43:58.309Z,1.33
2022-12-29T01:46:49.384Z,1.40
2022-12-29T01:49:35.150Z,0.90
2022-12-29T01:52:20.373Z,1.17
2022-12-29T01:55:06.852Z,2.90
2022-12-29T01:57:55.089Z,0.77
2022-12-29T02:00:40.916Z,1.27
2022-12-29T02:03:29.616Z,0.60
2022-12-29T02:06:22.053Z,0.87
2022-12-29T02:09:07.327Z,0.87
2022-12-29T02:11:53.324Z,0.90
2022-12-29T02:14:38.573Z,1.00
2022-12-29T02:17:45.957Z,1.67
2022-12-29T02:20:56.463Z,0.60
2022-12-29T02:24:20.694Z,0.97
2022-12-29T02:30:19.074Z,0.90
2022-12-29T02:33:13.856Z,0.80
2022-12-29T02:36:25.637Z,1.10
2022-12-29T02:39:41.782Z,0.77
2022-12-29T02:42:56.014Z,0.90
2022-12-29T02:45:49.977Z,0.70
2022-12-29T02:48:48.204Z,0.65
2022-12-29T02:51:49.051Z,0.57
2022-12-29T02:54:43.194Z,0.87
2022-12-29T02:57:35.685Z,1.40
2022-12-29T03:00:21.453Z,1.10
2022-12-29T03:03:28.401Z,1.03
2022-12-29T03:06:13.829Z,0.73
2022-12-29T03:09:02.468Z,1.07
2022-12-29T03:12:19.646Z,1.37
2022-12-29T03:15:29.942Z,0.70
2022-12-29T03:18:23.249Z,0.93
2022-12-29T03:21:14.682Z,1.37
2022-12-29T03:24:01.684Z,0.80
2022-12-29T03:26:48.859Z,0.87
2022-12-29T03:29:45.835Z,0.80
2022-12-29T03:32:43.080Z,0.97
2022-12-29T03:35:33.923Z,0.73
2022-12-29T03:38:26.789Z,1.23
2022-12-29T03:41:17.881Z,1.20
2022-12-29T03:44:06.405Z,0.97
2022-12-29T03:46:52.798Z,1.03
2022-12-29T03:49:39.036Z,1.57
2022-12-29T03:52:24.399Z,1.07
2022-12-29T03:55:11.941Z,3.03
2022-12-29T03:57:58.620Z,3.87
2022-12-29T04:01:03.027Z,1.43
2022-12-29T04:03:51.362Z,2.57
2022-12-29T04:06:36.598Z,1.97
2022-12-29T04:09:24.856Z,1.80
2022-12-29T04:12:11.171Z,2.30
2022-12-29T04:14:56.453Z,1.60
2022-12-29T04:17:41.740Z,2.60
2022-12-29T04:20:45.632Z,1.73
2022-12-29T04:23:34.106Z,1.07
2022-12-29T04:26:19.738Z,2.30
2022-12-29T04:29:17.095Z,1.73
2022-12-29T04:32:28.905Z,2.03
2022-12-29T04:35:14.972Z,4.03
2022-12-29T04:38:00.931Z,2.10
2022-12-29T04:40:46.484Z,2.43
2022-12-29T04:43:31.903Z,1.27
2022-12-29T04:46:26.464Z,1.80
2022-12-29T04:49:20.858Z,1.07
2022-12-29T04:52:11.586Z,1.57
2022-12-29T04:54:57.303Z,0.93
2022-12-29T04:57:42.683Z,1.10
2022-12-29T05:00:31.415Z,1.20
2022-12-29T05:03:16.894Z,0.93
2022-12-29T05:06:04.184Z,1.17
2022-12-29T05:08:49.371Z,1.47
2022-12-29T05:11:34.774Z,4.13
2022-12-29T05:14:20.431Z,1.20
2022-12-29T05:17:05.660Z,1.63
2022-12-29T05:19:51.448Z,1.00
2022-12-29T05:22:37.103Z,2.73
2022-12-29T05:25:24.452Z,1.53
2022-12-29T05:28:16.324Z,3.17
2022-12-29T05:31:33.417Z,2.13
2022-12-29T05:34:19.707Z,2.40
2022-12-29T05:37:05.134Z,0.70
2022-12-29T05:39:50.865Z,2.93
2022-12-29T05:42:38.152Z,0.80
2022-12-29T05:45:34.059Z,1.63
2022-12-29T05:48:42.464Z,2.23
2022-12-29T05:51:43.764Z,1.60
2022-12-29T05:54:29.502Z,1.03
2022-12-29T05:57:15.438Z,1.70
2022-12-29T06:00:06.666Z,1.20
2022-12-29T06:02:59.805Z,1.20
2022-12-29T06:05:47.070Z,0.97
2022-12-29T06:08:34.156Z,0.77
2022-12-29T06:11:20.054Z,2.80
2022-12-29T06:14:11.151Z,0.70
2022-12-29T06:16:56.427Z,2.50
2022-12-29T06:19:42.022Z,1.60
2022-12-29T06:22:27.360Z,0.60
2022-12-29T06:25:13.809Z,1.07
2022-12-29T06:28:01.516Z,1.13
2022-12-29T06:30:47.327Z,1.53
2022-12-29T06:33:32.532Z,1.57
2022-12-29T06:36:17.804Z,1.13
2022-12-29T06:39:03.651Z,1.57
2022-12-29T06:41:48.903Z,2.43
2022-12-29T06:45:09.893Z,2.50
2022-12-29T06:47:55.532Z,1.60
2022-12-29T06:50:40.750Z,3.70
2022-12-29T06:53:25.795Z,1.30
2022-12-29T06:56:10.997Z,0.80
2022-12-29T06:58:56.351Z,1.53
2022-12-29T07:01:41.696Z,0.70
2022-12-29T07:04:25.301Z,0.80
2022-12-29T07:07:10.631Z,1.77
2022-12-29T07:09:55.839Z,0.70
2022-12-29T07:12:41.240Z,2.13
2022-12-29T07:15:26.444Z,3.47
2022-12-29T07:18:11.785Z,2.17
2022-12-29T07:20:57.031Z,2.93
2022-12-29T07:23:42.153Z,0.83
2022-12-29T07:26:34.367Z,2.93
2022-12-29T07:29:21.369Z,2.13
2022-12-29T07:32:06.812Z,1.03
2022-12-29T07:34:53.000Z,1.43
2022-12-29T07:37:38.449Z,1.17
2022-12-29T07:40:23.787Z,2.47
2022-12-29T07:43:09.140Z,1.27
2022-12-29T07:46:02.361Z,2.30
2022-12-29T07:48:47.613Z,0.70
2022-12-29T07:51:33.330Z,1.70
2022-12-29T07:54:19.367Z,1.10
2022-12-29T07:57:05.919Z,1.10
2022-12-29T07:59:51.267Z,2.00
2022-12-29T08:02:37.342Z,2.00
2022-12-29T08:05:23.093Z,2.87
2022-12-29T08:08:09.528Z,0.53
2022-12-29T08:10:54.819Z,5.60
2022-12-29T08:13:40.058Z,2.00
2022-12-29T08:16:25.332Z,2.83
2022-12-29T08:19:12.797Z,1.07
2022-12-29T08:21:58.011Z,1.43
2022-12-29T08:24:43.352Z,1.30
2022-12-29T08:27:28.628Z,2.87
2022-12-29T08:30:14.408Z,1.20
2022-12-29T08:33:00.078Z,1.20
2022-12-29T08:35:45.773Z,3.00
2022-12-29T08:38:31.175Z,2.87
2022-12-29T08:41:16.511Z,2.43
2022-12-29T08:44:01.669Z,2.33
2022-12-29T08:46:47.124Z,3.97
2022-12-29T08:49:34.111Z,2.23
2022-12-29T08:52:20.208Z,2.03
2022-12-29T08:55:05.876Z,6.00
2022-12-29T08:57:51.049Z,2.27
2022-12-29T09:00:38.253Z,1.43
2022-12-29T09:03:46.070Z,7.13
2022-12-29T09:06:32.704Z,3.40
2022-12-29T09:09:21.873Z,7.20
2022-12-29T09:12:07.216Z,8.20
2022-12-29T09:14:52.536Z,4.37
2022-12-29T09:17:47.012Z,3.93
2022-12-29T09:20:32.780Z,4.23
2022-12-29T09:23:18.294Z,7.03
2022-12-29T09:26:04.394Z,9.67
2022-12-29T09:28:49.833Z,9.07
2022-12-29T09:31:34.993Z,4.33
2022-12-29T09:34:20.353Z,6.40
2022-12-29T09:37:05.617Z,5.47
2022-12-29T09:39:54.502Z,3.93
2022-12-29T09:43:02.172Z,4.37
2022-12-29T09:46:09.013Z,4.93
2022-12-29T09:49:24.010Z,5.60
2022-12-29T09:52:20.097Z,4.10
2022-12-29T09:55:13.930Z,4.27
2022-12-29T09:58:06.403Z,5.00
2022-12-29T10:01:06.800Z,6.73
2022-12-29T10:03:55.675Z,2.23
2022-12-29T10:07:29.294Z,4.17
2022-12-29T10:10:31.156Z,4.80
2022-12-29T10:13:44.080Z,2.30
2022-12-29T10:16:29.755Z,2.88
2022-12-29T10:19:28.292Z,3.67
2022-12-29T10:22:43.521Z,4.20
2022-12-29T10:25:33.503Z,4.63
2022-12-29T10:28:24.129Z,4.30
2022-12-29T10:31:17.753Z,4.80
2022-12-29T10:34:36.467Z,3.47
2022-12-29T10:37:39.943Z,3.40
2022-12-29T10:40:43.800Z,3.97
2022-12-29T10:46:21.364Z,3.40
2022-12-29T10:49:21.542Z,4.57
2022-12-29T10:52:09.523Z,5.03
2022-12-29T10:54:57.536Z,2.77
2022-12-29T10:57:47.133Z,6.70
2022-12-29T11:00:33.724Z,3.23
2022-12-29T11:03:33.194Z,3.87
2022-12-29T11:06:27.684Z,3.60
2022-12-29T11:09:36.645Z,3.37
2022-12-29T11:12:29.903Z,5.57
2022-12-29T11:15:16.693Z,6.20
2022-12-29T11:18:02.399Z,4.17
2022-12-29T11:20:48.526Z,3.93
2022-12-29T11:23:35.495Z,6.67
2022-12-29T11:26:23.909Z,6.80
2022-12-29T11:34:59.724Z,4.73
2022-12-29T11:37:45.191Z,5.00
2022-12-29T11:40:31.603Z,5.70
2022-12-29T11:43:34.361Z,4.10
2022-12-29T11:46:25.226Z,5.00
2022-12-29T11:49:15.062Z,3.30
2022-12-29T11:52:01.155Z,3.83
2022-12-29T11:54:46.488Z,6.43
2022-12-29T11:57:36.404Z,4.83
2022-12-29T12:00:26.100Z,5.43
2022-12-29T12:03:19.010Z,6.33
2022-12-29T12:06:04.751Z,10.98
2022-12-29T12:08:56.408Z,3.20
2022-12-29T12:11:44.624Z,3.80
2022-12-29T12:14:36.180Z,4.67
2022-12-29T12:17:41.229Z,4.72
2022-12-29T12:20:55.026Z,3.37
2022-12-29T12:24:06.530Z,2.97
2022-12-29T12:27:03.647Z,6.40
2022-12-29T12:30:16.614Z,5.80
2022-12-29T12:33:07.354Z,4.47
2022-12-29T12:35:58.433Z,6.27
2022-12-29T12:39:01.353Z,7.70
2022-12-29T12:42:05.265Z,5.78
2022-12-29T12:45:18.580Z,6.87
2022-12-29T12:48:41.170Z,7.20
2022-12-29T12:51:34.838Z,12.30
2022-12-29T12:54:35.467Z,7.13
2022-12-29T12:57:50.720Z,8.27
2022-12-29T13:00:56.269Z,7.33
2022-12-29T13:04:14.148Z,7.67
2022-12-29T13:07:12.705Z,10.37
2022-12-29T13:10:18.614Z,7.90
2022-12-29T13:13:22.897Z,9.50
2022-12-29T13:16:24.507Z,10.53
2022-12-29T13:19:25.487Z,7.97
2022-12-29T13:22:26.001Z,6.47
2022-12-29T13:25:52.454Z,6.27
2022-12-29T13:28:46.801Z,6.27
2022-12-29T13:31:45.500Z,8.77
2022-12-29T13:34:47.108Z,7.70
2022-12-29T13:37:37.291Z,7.87
2022-12-29T13:40:27.183Z,7.23
2022-12-29T13:43:15.014Z,6.27
2022-12-29T13:46:09.045Z,7.23
2022-12-29T13:49:00.416Z,7.00
2022-12-29T13:51:52.455Z,6.17
2022-12-29T13:54:49.691Z,9.43
2022-12-29T13:57:41.753Z,7.83
2022-12-29T14:00:34.665Z,7.77
2022-12-29T14:03:38.922Z,7.90
2022-12-29T14:06:30.147Z,7.37
2022-12-29T14:09:54.443Z,8.43
2022-12-29T14:12:42.934Z,6.17
2022-12-29T14:15:28.347Z,4.37
2022-12-29T14:18:20.280Z,5.73
2022-12-29T14:21:08.804Z,5.78
2022-12-29T14:23:54.924Z,11.40
2022-12-29T14:26:40.324Z,10.63
2022-12-29T14:29:25.495Z,7.17
2022-12-29T14:32:26.280Z,5.63
2022-12-29T14:35:39.495Z,7.27
2022-12-29T14:38:30.773Z,8.45
2022-12-29T14:41:21.025Z,7.20
2022-12-29T14:44:21.248Z,7.60
2022-12-29T14:47:09.021Z,5.67
2022-12-29T14:49:55.690Z,6.60
2022-12-29T14:53:02.358Z,6.07
2022-12-29T14:55:56.210Z,7.00
2022-12-29T14:58:58.487Z,8.43
2022-12-29T15:01:49.731Z,6.50
2022-12-29T15:04:36.607Z,7.17
2022-12-29T15:07:21.971Z,6.73
2022-12-29T15:10:15.481Z,6.57
2022-12-29T15:13:06.057Z,5.63
2022-12-29T15:15:53.921Z,6.50
2022-12-29T15:18:43.708Z,7.43
2022-12-29T15:21:34.981Z,6.60
2022-12-29T15:24:20.276Z,8.83
2022-12-29T15:27:06.340Z,8.27
2022-12-29T15:30:03.507Z,8.00
2022-12-29T15:32:50.688Z,8.83
2022-12-29T15:35:37.904Z,11.57
2022-12-29T15:38:33.276Z,9.97
2022-12-29T15:42:07.343Z,10.20
2022-12-29T15:44:58.044Z,12.88
2022-12-29T15:47:56.914Z,17.27
2022-12-29T15:50:44.076Z,21.70
2022-12-29T15:53:32.057Z,20.43
2022-12-29T15:56:17.873Z,25.40
2022-12-29T15:59:03.220Z,22.87
2022-12-29T16:01:48.848Z,26.53
2022-12-29T16:04:53.766Z,32.10
2022-12-29T16:07:42.266Z,22.47
2022-12-29T16:10:41.179Z,26.20
2022-12-29T16:13:39.786Z,24.97
2022-12-29T16:16:33.089Z,24.50
2022-12-29T16:19:34.572Z,23.40
2022-12-29T16:22:30.317Z,27.17
2022-12-29T16:25:33.236Z,25.70
2022-12-29T16:28:23.200Z,26.23
2022-12-29T16:31:22.230Z,24.03
2022-12-29T16:34:24.895Z,28.47
2022-12-29T16:37:38.654Z,27.50
2022-12-29T16:40:29.280Z,27.57
2022-12-29T16:43:24.460Z,29.77
2022-12-29T16:46:30.371Z,24.83
2022-12-29T16:49:21.475Z,23.67
2022-12-29T16:52:24.740Z,19.60
2022-12-29T16:55:18.996Z,21.23
2022-12-29T16:58:04.341Z,23.30
2022-12-29T17:00:50.252Z,17.37
2022-12-29T17:03:40.965Z,15.23
2022-12-29T17:06:26.515Z,13.67
2022-12-29T17:09:19.580Z,15.37
2022-12-29T17:12:11.625Z,15.32
2022-12-29T17:15:00.672Z,16.20
2022-12-29T17:17:48.658Z,14.60
2022-12-29T17:20:34.655Z,15.83
2022-12-29T17:23:26.386Z,13.93
2022-12-29T17:26:13.980Z,12.65
2022-12-29T17:28:59.190Z,14.93
2022-12-29T17:31:45.915Z,13.73
2022-12-29T17:34:32.397Z,14.50
2022-12-29T17:37:47.288Z,13.50
2022-12-29T17:40:33.858Z,10.13
2022-12-29T17:43:20.494Z,10.03
2022-12-29T17:46:08.158Z,13.70
2022-12-29T17:48:54.140Z,11.93
2022-12-29T17:51:40.273Z,16.10
2022-12-29T17:54:26.404Z,15.00
2022-12-29T17:57:16.436Z,16.90
2022-12-29T18:00:02.323Z,12.83
2022-12-29T18:02:58.661Z,12.37
2022-12-29T18:05:45.037Z,13.27
2022-12-29T18:08:30.791Z,17.60
2022-12-29T18:11:24.227Z,11.37
2022-12-29T18:14:17.080Z,12.90
2022-12-29T18:22:43.031Z,14.33
2022-12-29T18:25:42.179Z,14.07
2022-12-29T18:28:28.670Z,11.53
2022-12-29T18:31:20.224Z,14.93
2022-12-29T18:34:14.889Z,10.60
2022-12-29T18:37:01.699Z,12.07
2022-12-29T18:39:47.457Z,10.83
2022-12-29T18:42:33.063Z,11.47
2022-12-29T18:45:21.967Z,10.90
2022-12-29T18:48:07.885Z,10.90
2022-12-29T18:50:53.615Z,12.67
2022-12-29T18:53:39.007Z,10.50
2022-12-29T18:56:24.674Z,11.23
2022-12-29T18:59:10.180Z,10.17
2022-12-29T19:01:55.489Z,12.10
2022-12-29T19:04:40.620Z,10.53
2022-12-29T19:07:26.448Z,13.73
2022-12-29T19:10:12.186Z,12.27
2022-12-29T19:12:57.925Z,12.03
2022-12-29T19:15:44.389Z,12.33
2022-12-29T19:18:50.873Z,11.73
2022-12-29T19:21:36.772Z,10.57
2022-12-29T19:24:22.556Z,14.43
2022-12-29T19:27:07.658Z,9.93
2022-12-29T19:29:52.774Z,12.30
2022-12-29T19:32:38.063Z,11.57
2022-12-29T19:35:25.240Z,10.47
2022-12-29T19:38:12.772Z,10.40
2022-12-29T19:40:58.301Z,11.67
2022-12-29T19:43:43.515Z,11.10
2022-12-29T19:46:28.842Z,8.53
2022-12-29T19:49:14.168Z,12.27
2022-12-29T19:51:59.548Z,10.90
2022-12-29T19:54:44.886Z,9.60
2022-12-29T19:57:31.063Z,9.87
2022-12-29T20:00:16.619Z,11.93
2022-12-29T20:03:02.333Z,10.73
2022-12-29T20:05:49.001Z,8.70
2022-12-29T20:08:35.607Z,8.97
2022-12-29T20:11:21.181Z,10.80
2022-12-29T20:14:06.462Z,12.70
2022-12-29T20:17:10.049Z,9.47
2022-12-29T20:19:56.197Z,8.02
2022-12-29T20:22:41.559Z,8.90
2022-12-29T20:25:46.643Z,10.23
2022-12-29T20:28:35.144Z,9.63
2022-12-29T20:31:25.083Z,9.70
2022-12-29T20:34:10.835Z,8.33
2022-12-29T20:36:55.955Z,8.67
2022-12-29T20:39:42.250Z,9.70
2022-12-29T20:42:27.500Z,7.50
2022-12-29T20:45:12.743Z,9.80
2022-12-29T20:47:58.108Z,9.97
2022-12-29T20:50:43.432Z,8.67
2022-12-29T20:53:29.447Z,8.00
2022-12-29T20:56:18.251Z,9.33
2022-12-29T20:59:26.801Z,8.77
2022-12-29T21:02:23.277Z,7.87
2022-12-29T21:05:25.409Z,10.30
2022-12-29T21:08:11.722Z,10.23
2022-12-29T21:10:58.464Z,7.83
2022-12-29T21:13:44.456Z,8.23
2022-12-29T21:16:29.862Z,8.27
2022-12-29T21:19:16.224Z,8.87
2022-12-29T21:22:02.003Z,8.27
2022-12-29T21:24:47.217Z,8.33
2022-12-29T21:27:33.418Z,8.10
2022-12-29T21:30:18.955Z,8.00
2022-12-29T21:33:04.940Z,8.13
2022-12-29T21:35:50.533Z,6.67
2022-12-29T21:38:36.131Z,7.17
2022-12-29T21:41:22.068Z,7.60
2022-12-29T21:44:25.726Z,8.50
2022-12-29T21:47:11.292Z,7.57
2022-12-29T21:49:56.635Z,7.33
2022-12-29T21:52:41.909Z,5.83
2022-12-29T21:55:27.187Z,7.00
2022-12-29T21:58:30.948Z,6.33
2022-12-29T22:01:34.922Z,5.80
2022-12-29T22:04:41.708Z,7.40
2022-12-29T22:07:45.483Z,6.87
2022-12-29T22:10:49.329Z,7.00
2022-12-29T22:13:39.332Z,7.10
2022-12-29T22:16:25.418Z,8.27
2022-12-29T22:19:11.055Z,9.17
2022-12-29T22:21:56.182Z,8.50
2022-12-29T22:24:41.476Z,6.73
2022-12-29T22:27:27.004Z,6.27
2022-12-29T22:30:13.284Z,6.77
2022-12-29T22:32:58.976Z,7.17
2022-12-29T22:35:44.953Z,6.10
2022-12-29T22:38:30.252Z,6.77
2022-12-29T22:41:15.839Z,8.17
2022-12-29T22:44:01.339Z,6.60
2022-12-29T22:46:46.821Z,6.10
2022-12-29T22:49:32.038Z,7.90
2022-12-29T22:52:17.379Z,6.73
2022-12-29T22:55:06.732Z,5.93
2022-12-29T22:57:52.630Z,8.47
2022-12-29T23:00:37.833Z,5.83
2022-12-29T23:03:22.976Z,5.17
2022-12-29T23:06:11.117Z,5.70
2022-12-29T23:08:58.334Z,6.03
2022-12-29T23:11:44.202Z,7.73
2022-12-29T23:14:29.465Z,5.63
2022-12-29T23:17:14.701Z,5.77
2022-12-29T23:19:59.964Z,4.87
2022-12-29T23:22:45.228Z,5.53
2022-12-29T23:25:30.599Z,6.10
2022-12-29T23:28:15.770Z,5.53
2022-12-29T23:31:01.107Z,4.80
2022-12-29T23:33:46.584Z,7.30
2022-12-29T23:36:32.561Z,4.80
2022-12-29T23:39:20.858Z,4.90
2022-12-29T23:42:06.122Z,5.17
2022-12-29T23:44:51.383Z,5.23
2022-12-29T23:47:36.616Z,5.17
2022-12-29T23:50:21.896Z,5.40
2022-12-29T23:53:08.218Z,4.73
2022-12-29T23:55:55.994Z,5.17
2022-12-29T23:58:41.834Z,6.83
